Time;durP1;ratioP1;P1;durP2;ratioP2;P2;SDS_P1;SDS_P2;PMS_P1;PMS_P2;Temp;Humidity;BMP_temperature;BMP_pressure;BME280_temperature;BME280_humidity;BME280_pressure;Samples;Min_cycle;Max_cycle;Signal;HPM_P1;HPM_P2
2022/01/14 00:02:04;;;;;;;38.70;24.13;;;2.10;99.90;;;;;;5013557;28;20225;-67
2022/01/14 00:04:33;;;;;;;38.78;24.23;;;2.10;99.90;;;;;;5013947;28;20211;-67
2022/01/14 00:07:00;;;;;;;34.08;21.92;;;2.10;99.90;;;;;;5013040;28;20200;-68
2022/01/14 00:09:30;;;;;;;35.75;23.08;;;2.10;99.90;;;;;;5013842;28;20227;-68
2022/01/14 00:11:59;;;;;;;37.83;24.02;;;2.10;99.90;;;;;;5013025;28;20253;-68
2022/01/14 00:14:39;;;;;;;41.45;26.00;;;2.10;99.90;;;;;;5013878;28;20208;-68
2022/01/14 00:17:07;;;;;;;38.70;22.70;;;2.10;99.90;;;;;;5013547;28;20288;-67
2022/01/14 00:19:34;;;;;;;38.30;25.00;;;2.20;99.90;;;;;;5013710;28;20671;-67
2022/01/14 00:22:07;;;;;;;41.00;25.80;;;2.20;99.90;;;;;;5013211;28;20319;-67
2022/01/14 00:32:53;;;;;;;40.53;25.80;;;2.00;99.90;;;;;;5013191;28;20752;-66
2022/01/14 00:35:20;;;;;;;37.88;24.67;;;2.10;99.90;;;;;;5013457;28;20208;-66
2022/01/14 00:37:47;;;;;;;41.58;26.88;;;2.10;99.90;;;;;;5013607;28;20295;-66
2022/01/14 00:40:15;;;;;;;36.95;25.00;;;2.20;99.90;;;;;;5013515;28;20287;-66
2022/01/14 00:42:42;;;;;;;37.70;24.85;;;2.20;99.90;;;;;;5013076;28;20315;-66
2022/01/14 00:45:11;;;;;;;37.67;24.65;;;2.30;99.90;;;;;;5013026;28;20642;-67
2022/01/14 00:47:40;;;;;;;43.55;26.67;;;2.30;99.90;;;;;;5013089;28;20655;-68
2022/01/14 00:50:09;;;;;;;39.10;24.83;;;2.30;99.90;;;;;;5012806;28;20224;-67
2022/01/14 00:52:36;;;;;;;40.47;25.38;;;2.30;99.90;;;;;;5013016;28;20261;-68
2022/01/14 00:55:03;;;;;;;45.15;26.65;;;2.20;99.90;;;;;;5013067;28;20219;-67
2022/01/14 01:00:12;;;;;;;41.97;26.38;;;2.20;99.90;;;;;;5013614;28;20296;-68
2022/01/14 01:02:39;;;;;;;40.10;26.98;;;2.20;99.90;;;;;;5012813;28;20228;-68
2022/01/14 01:05:07;;;;;;;40.80;27.13;;;2.00;99.90;;;;;;5014086;28;20201;-68
2022/01/14 01:07:34;;;;;;;45.65;28.33;;;1.70;99.90;;;;;;5014175;28;20201;-68
2022/01/14 01:10:00;;;;;;;41.30;26.95;;;1.50;99.90;;;;;;5013854;28;20224;-67
2022/01/14 01:12:34;;;;;;;42.97;27.70;;;1.40;99.90;;;;;;5013624;28;20221;-68
2022/01/14 01:15:07;;;;;;;48.33;28.35;;;1.40;99.90;;;;;;5013842;28;20209;-68
2022/01/14 01:17:34;;;;;;;43.67;27.65;;;1.40;99.90;;;;;;5013858;28;20193;-68
2022/01/14 01:20:04;;;;;;;41.90;26.73;;;1.50;99.90;;;;;;5017588;28;20204;-68
2022/01/14 01:22:30;;;;;;;41.65;26.67;;;1.60;99.90;;;;;;5017835;28;20220;-67
2022/01/14 01:24:57;;;;;;;42.30;27.35;;;1.70;99.90;;;;;;5017732;28;20630;-68
2022/01/14 01:27:24;;;;;;;39.92;26.73;;;1.70;99.90;;;;;;5017721;28;20295;-68
2022/01/14 01:29:56;;;;;;;41.67;27.70;;;1.80;99.90;;;;;;5017465;28;20224;-67
2022/01/14 01:32:24;;;;;;;42.78;27.45;;;1.90;99.90;;;;;;5017737;28;20590;-67
2022/01/14 01:34:51;;;;;;;41.80;27.83;;;2.00;99.90;;;;;;5017366;28;20696;-67
2022/01/14 01:37:18;;;;;;;38.20;26.10;;;2.00;99.90;;;;;;5017292;28;20296;-68
2022/01/14 01:39:44;;;;;;;39.90;25.15;;;2.10;99.90;;;;;;5017463;28;20287;-67
2022/01/14 01:42:12;;;;;;;37.15;24.95;;;2.10;99.90;;;;;;5017313;28;20237;-68
2022/01/14 01:44:40;;;;;;;40.05;26.67;;;2.00;99.90;;;;;;5017304;28;20658;-67
2022/01/14 01:47:08;;;;;;;39.47;25.67;;;1.90;99.90;;;;;;5017332;28;20300;-67
2022/01/14 01:49:38;;;;;;;42.00;26.85;;;1.90;99.90;;;;;;5017399;28;20260;-67
2022/01/14 01:52:05;;;;;;;46.05;26.13;;;1.90;99.90;;;;;;5017871;28;20300;-67
2022/01/14 01:54:32;;;;;;;37.83;24.52;;;1.90;99.90;;;;;;5017238;28;20245;-67
2022/01/14 01:56:59;;;;;;;38.58;27.23;;;2.00;99.90;;;;;;5017233;28;20201;-68
2022/01/14 01:59:26;;;;;;;40.05;26.50;;;2.00;99.90;;;;;;5017214;28;20197;-67
2022/01/14 02:01:56;;;;;;;41.53;27.02;;;1.80;99.90;;;;;;5016842;28;20224;-67
2022/01/14 02:04:23;;;;;;;38.95;25.77;;;1.80;99.90;;;;;;5016704;28;20236;-67
2022/01/14 02:06:52;;;;;;;38.38;25.63;;;1.90;99.90;;;;;;5016993;28;20231;-67
2022/01/14 02:09:19;;;;;;;38.55;25.52;;;1.90;99.90;;;;;;5016978;28;20227;-67
2022/01/14 02:11:46;;;;;;;35.92;24.75;;;2.00;99.90;;;;;;5016725;28;20231;-67
2022/01/14 02:14:27;;;;;;;34.90;24.42;;;2.10;99.90;;;;;;5017092;28;20208;-68
2022/01/14 02:17:27;;;;;;;36.08;23.70;;;2.10;99.90;;;;;;5016735;28;20686;-68
2022/01/14 02:22:46;;;;;;;37.20;25.17;;;2.20;99.90;;;;;;5016719;28;20247;-67
2022/01/14 02:25:15;;;;;;;41.60;27.63;;;2.10;99.90;;;;;;5016450;28;20693;-68
2022/01/14 02:27:43;;;;;;;41.08;26.20;;;2.00;99.90;;;;;;5016714;28;20259;-68
2022/01/14 02:30:11;;;;;;;43.03;26.83;;;1.80;99.90;;;;;;5015471;28;20229;-67
2022/01/14 02:32:39;;;;;;;38.53;24.38;;;1.90;99.90;;;;;;5016494;28;20225;-67
2022/01/14 02:35:09;;;;;;;39.20;26.00;;;2.00;99.90;;;;;;5016739;28;20207;-68
2022/01/14 02:37:36;;;;;;;37.53;25.48;;;2.00;99.90;;;;;;5016709;28;20193;-68
2022/01/14 02:40:05;;;;;;;38.67;26.55;;;2.00;99.90;;;;;;5015934;28;20211;-67
2022/01/14 02:42:32;;;;;;;43.80;26.05;;;2.00;99.90;;;;;;5015775;28;20710;-68
2022/01/14 02:45:03;;;;;;;37.95;25.35;;;2.00;99.90;;;;;;5016394;28;20595;-67
2022/01/14 02:47:30;;;;;;;43.00;27.00;;;1.90;99.90;;;;;;5016357;28;20215;-67
2022/01/14 02:49:57;;;;;;;39.60;25.40;;;1.90;99.90;;;;;;5015980;28;20228;-67
2022/01/14 02:52:41;;;;;;;36.00;24.77;;;1.90;99.90;;;;;;5016182;28;20225;-68
2022/01/14 02:55:17;;;;;;;38.90;25.40;;;2.00;99.90;;;;;;5016279;28;20698;-68
2022/01/14 02:57:46;;;;;;;36.47;25.13;;;2.10;99.90;;;;;;5016362;28;20208;-68
2022/01/14 03:00:15;;;;;;;39.50;24.85;;;2.10;99.90;;;;;;5016090;28;20205;-68
2022/01/14 03:02:45;;;;;;;41.75;25.40;;;2.10;99.90;;;;;;5015901;28;20231;-68
2022/01/14 03:05:13;;;;;;;39.45;25.42;;;2.10;99.90;;;;;;5016002;28;20207;-67
2022/01/14 03:07:42;;;;;;;36.40;25.70;;;2.10;99.90;;;;;;5015985;28;20205;-67
2022/01/14 03:10:10;;;;;;;38.78;25.70;;;2.00;99.90;;;;;;5015588;28;20231;-67
2022/01/14 03:12:39;;;;;;;41.78;27.20;;;2.10;99.90;;;;;;5015953;28;20307;-67
2022/01/14 03:15:07;;;;;;;40.63;25.08;;;2.10;99.90;;;;;;5015888;28;20295;-68
2022/01/14 03:17:35;;;;;;;39.00;26.70;;;2.20;99.90;;;;;;5015757;28;20570;-67
2022/01/14 03:20:02;;;;;;;38.35;26.02;;;2.20;99.90;;;;;;5015551;28;20211;-68
2022/01/14 03:22:33;;;;;;;42.08;26.38;;;2.10;99.90;;;;;;5015682;28;20229;-68
2022/01/14 03:28:00;;;;;;;42.92;28.23;;;1.60;99.90;;;;;;4974448;28;20198;-67
2022/01/14 03:30:27;;;;;;;39.13;27.67;;;1.60;99.90;;;;;;4974224;28;20233;-67
2022/01/14 03:32:54;;;;;;;35.05;26.27;;;1.70;99.90;;;;;;4992100;28;20728;-67
2022/01/14 03:35:21;;;;;;;39.65;25.85;;;1.70;99.90;;;;;;5015637;28;20215;-67
2022/01/14 03:37:47;;;;;;;39.70;28.63;;;1.80;99.90;;;;;;5015585;28;20240;-67
2022/01/14 03:40:16;;;;;;;37.30;26.10;;;1.90;99.90;;;;;;5015366;28;20762;-67
2022/01/14 03:42:42;;;;;;;40.30;28.55;;;1.90;99.90;;;;;;5013951;28;20232;-68
2022/01/14 03:45:10;;;;;;;43.90;27.17;;;1.90;99.90;;;;;;5015676;28;20291;-68
2022/01/14 03:47:37;;;;;;;37.88;26.55;;;2.00;99.90;;;;;;5015489;28;20291;-68
2022/01/14 03:50:04;;;;;;;38.72;27.13;;;2.00;99.90;;;;;;5014864;28;20311;-67
2022/01/14 03:52:32;;;;;;;42.42;27.90;;;1.70;99.90;;;;;;5015139;28;20224;-67
2022/01/14 03:54:58;;;;;;;41.03;27.58;;;1.60;99.90;;;;;;5015135;28;20209;-68
2022/01/14 03:57:51;;;;;;;40.38;27.20;;;1.60;99.90;;;;;;5015200;28;20204;-68
2022/01/14 04:00:19;;;;;;;44.05;27.77;;;1.70;99.90;;;;;;5014853;28;20201;-69
2022/01/14 04:02:46;;;;;;;41.65;26.95;;;1.60;99.90;;;;;;5015453;28;20311;-68
2022/01/14 04:05:13;;;;;;;46.15;28.52;;;1.60;99.90;;;;;;5014933;28;20209;-68
2022/01/14 04:07:41;;;;;;;41.22;27.63;;;1.60;99.90;;;;;;5014836;28;20200;-68
2022/01/14 04:10:10;;;;;;;38.65;27.48;;;1.60;99.90;;;;;;5014439;28;20235;-69
2022/01/14 04:12:47;;;;;;;42.20;27.33;;;1.50;99.90;;;;;;5014731;28;20221;-68
2022/01/14 04:18:02;;;;;;;39.90;26.08;;;1.60;99.90;;;;;;5015059;28;20287;-68
2022/01/14 04:20:29;;;;;;;42.92;27.08;;;1.60;99.90;;;;;;5014460;28;20201;-68
2022/01/14 04:22:56;;;;;;;38.33;26.25;;;1.70;99.90;;;;;;5014475;28;20239;-68
2022/01/14 04:25:23;;;;;;;37.03;26.17;;;1.70;99.90;;;;;;5014415;28;20704;-68
2022/01/14 04:27:50;;;;;;;37.83;27.15;;;1.70;99.90;;;;;;5014627;28;20208;-68
2022/01/14 04:30:20;;;;;;;39.42;26.75;;;1.70;99.90;;;;;;5014202;28;20227;-68
2022/01/14 04:32:47;;;;;;;41.22;28.58;;;1.70;99.90;;;;;;5014609;28;20227;-68
2022/01/14 04:35:14;;;;;;;39.90;26.38;;;1.70;99.90;;;;;;5014189;28;20681;-68
2022/01/14 04:37:41;;;;;;;42.08;27.05;;;1.80;99.90;;;;;;5014068;28;20211;-68
2022/01/14 04:40:09;;;;;;;41.42;27.25;;;1.70;99.90;;;;;;5014026;28;20202;-68
2022/01/14 04:42:37;;;;;;;41.38;28.40;;;1.50;99.90;;;;;;5013796;28;20719;-68
2022/01/14 04:45:04;;;;;;;44.53;29.10;;;1.20;99.90;;;;;;5014272;28;20292;-68
2022/01/14 04:47:44;;;;;;;44.53;29.40;;;0.90;99.90;;;;;;5014254;28;20209;-69
2022/01/14 04:50:11;;;;;;;40.25;28.13;;;0.70;99.90;;;;;;5014031;28;20315;-68
2022/01/14 04:52:38;;;;;;;40.97;28.10;;;0.80;99.90;;;;;;5013783;28;20315;-69
2022/01/14 04:55:06;;;;;;;45.20;28.75;;;0.90;99.90;;;;;;5013903;28;20296;-68
2022/01/14 04:57:33;;;;;;;41.78;27.42;;;1.10;99.90;;;;;;5013714;28;20663;-68
2022/01/14 05:00:00;;;;;;;44.03;28.75;;;1.20;99.90;;;;;;5013802;28;20205;-68
2022/01/14 05:02:27;;;;;;;40.95;27.98;;;1.20;99.90;;;;;;5013972;28;20263;-68
2022/01/14 05:04:59;;;;;;;40.97;26.90;;;1.20;99.90;;;;;;5013889;28;20209;-68
2022/01/14 05:07:26;;;;;;;40.08;27.27;;;1.30;99.90;;;;;;5013897;28;20278;-68
2022/01/14 05:10:08;;;;;;;43.72;29.90;;;1.40;99.90;;;;;;5013597;28;20246;-68
2022/01/14 05:12:38;;;;;;;43.10;29.02;;;1.40;99.90;;;;;;5013940;28;20282;-68
2022/01/14 05:15:07;;;;;;;42.28;29.00;;;1.40;99.90;;;;;;5013795;28;20263;-69
2022/01/14 05:17:34;;;;;;;40.45;28.00;;;1.40;99.90;;;;;;5013790;28;20204;-68
2022/01/14 05:20:03;;;;;;;41.60;26.70;;;1.50;99.90;;;;;;5013722;28;20276;-68
2022/01/14 05:22:29;;;;;;;40.08;26.38;;;1.50;99.90;;;;;;5013524;28;20650;-68
2022/01/14 05:24:57;;;;;;;38.25;25.70;;;1.50;99.90;;;;;;5013790;28;20207;-68
2022/01/14 05:27:23;;;;;;;35.25;25.85;;;1.40;99.90;;;;;;5013777;28;20574;-68
2022/01/14 05:29:50;;;;;;;36.50;25.10;;;1.40;99.90;;;;;;5013478;28;20593;-68
2022/01/14 05:32:17;;;;;;;38.65;25.70;;;1.40;99.90;;;;;;5013529;28;20232;-69
2022/01/14 05:34:46;;;;;;;37.95;26.55;;;1.50;99.90;;;;;;5013471;28;20295;-69
2022/01/14 05:37:14;;;;;;;41.95;27.08;;;1.60;99.90;;;;;;5014162;28;20212;-68
2022/01/14 05:39:41;;;;;;;39.55;27.38;;;1.60;99.90;;;;;;5013543;28;20204;-68
2022/01/14 05:42:10;;;;;;;43.58;28.20;;;1.60;99.90;;;;;;5013652;28;20267;-68
2022/01/14 05:44:37;;;;;;;41.00;26.35;;;1.60;99.90;;;;;;5013888;28;20201;-68
2022/01/14 05:47:05;;;;;;;40.35;26.30;;;1.60;99.90;;;;;;5013721;28;20201;-69
2022/01/14 05:49:31;;;;;;;41.25;27.70;;;1.50;99.90;;;;;;5013273;28;20208;-68
2022/01/14 05:51:58;;;;;;;44.03;27.00;;;1.40;99.90;;;;;;5013000;28;20709;-69
2022/01/14 05:54:27;;;;;;;37.97;27.92;;;1.40;99.90;;;;;;5013613;28;20291;-68
2022/01/14 05:56:53;;;;;;;37.55;27.58;;;1.30;99.90;;;;;;5013608;28;20205;-68
2022/01/14 05:59:20;;;;;;;42.42;26.88;;;1.30;99.90;;;;;;5013551;28;20205;-68
2022/01/14 06:01:47;;;;;;;39.17;26.30;;;1.30;99.90;;;;;;5013287;28;20560;-68
2022/01/14 06:04:14;;;;;;;41.17;27.67;;;1.30;99.90;;;;;;5013398;28;20211;-68
2022/01/14 06:06:41;;;;;;;38.78;24.88;;;1.30;99.90;;;;;;5016038;28;20209;-68
2022/01/14 06:09:08;;;;;;;34.10;24.38;;;1.30;99.90;;;;;;5017079;28;20211;-68
2022/01/14 06:11:36;;;;;;;34.65;23.83;;;1.30;99.90;;;;;;5016558;28;20691;-68
2022/01/14 06:14:03;;;;;;;33.78;22.75;;;1.40;99.90;;;;;;5017036;28;20299;-68
2022/01/14 06:16:30;;;;;;;31.52;22.63;;;1.40;99.90;;;;;;5016754;28;20263;-68
2022/01/14 06:18:56;;;;;;;34.25;24.70;;;1.50;99.90;;;;;;5016925;28;20215;-68
2022/01/14 06:21:23;;;;;;;33.78;22.83;;;1.50;99.90;;;;;;5016582;28;20296;-68
2022/01/14 06:23:50;;;;;;;33.50;23.77;;;1.50;99.90;;;;;;5016630;28;20208;-68
2022/01/14 06:26:17;;;;;;;32.58;24.38;;;1.50;99.90;;;;;;5016900;28;20296;-68
2022/01/14 06:28:46;;;;;;;34.22;23.52;;;1.60;99.90;;;;;;5016635;28;20746;-68
2022/01/14 06:31:13;;;;;;;34.78;23.88;;;1.60;99.90;;;;;;5016037;28;20236;-68
2022/01/14 06:33:41;;;;;;;39.83;25.65;;;1.50;99.90;;;;;;5016328;28;20208;-68
2022/01/14 06:36:08;;;;;;;38.05;25.20;;;1.50;99.90;;;;;;5016594;28;20251;-68
2022/01/14 06:38:35;;;;;;;35.28;24.73;;;1.40;99.90;;;;;;5016410;28;20208;-68
2022/01/14 06:41:02;;;;;;;37.33;25.40;;;1.30;99.90;;;;;;5016142;28;20201;-69
2022/01/14 06:43:29;;;;;;;35.20;23.30;;;1.30;99.90;;;;;;5016406;28;20229;-68
2022/01/14 06:45:57;;;;;;;33.05;24.27;;;1.30;99.90;;;;;;5016311;28;20291;-68
2022/01/14 06:48:24;;;;;;;34.97;22.50;;;1.20;99.90;;;;;;5016202;28;20216;-68
2022/01/14 06:50:50;;;;;;;31.45;21.70;;;1.20;99.90;;;;;;5016195;28;20623;-68
2022/01/14 06:53:17;;;;;;;33.58;22.88;;;1.20;99.90;;;;;;5016035;28;20316;-68
2022/01/14 06:55:44;;;;;;;38.35;23.55;;;1.20;99.90;;;;;;5016196;28;20208;-68
2022/01/14 06:58:11;;;;;;;35.63;23.45;;;1.10;99.90;;;;;;5016223;28;20205;-68
2022/01/14 07:00:38;;;;;;;35.55;23.75;;;0.90;99.90;;;;;;5015734;28;20208;-68
2022/01/14 07:03:06;;;;;;;32.97;22.08;;;0.70;99.90;;;;;;5015836;28;20728;-68
2022/01/14 07:05:33;;;;;;;33.00;21.50;;;0.80;99.90;;;;;;5015978;28;20211;-68
2022/01/14 07:08:00;;;;;;;33.70;23.05;;;0.90;99.90;;;;;;5015773;28;20208;-68
2022/01/14 07:10:27;;;;;;;35.63;23.75;;;0.90;99.90;;;;;;5015798;28;20228;-68
2022/01/14 07:12:54;;;;;;;32.28;22.80;;;1.00;99.90;;;;;;5015665;28;20227;-68
2022/01/14 07:15:21;;;;;;;35.40;22.30;;;1.10;99.90;;;;;;5015590;28;20205;-68
2022/01/14 07:17:48;;;;;;;33.75;23.50;;;1.10;99.90;;;;;;5015606;28;20209;-69
2022/01/14 07:20:18;;;;;;;37.42;26.35;;;1.20;99.90;;;;;;5015676;28;20288;-68
2022/01/14 07:22:46;;;;;;;38.38;25.58;;;1.20;99.90;;;;;;5015555;28;20224;-68
2022/01/14 07:25:14;;;;;;;35.25;24.70;;;1.20;99.90;;;;;;5015696;28;20208;-69
2022/01/14 07:27:41;;;;;;;34.08;24.30;;;1.30;99.90;;;;;;5015763;28;20220;-69
2022/01/14 07:30:09;;;;;;;36.75;25.83;;;1.30;99.90;;;;;;5015164;28;20215;-68
2022/01/14 07:32:36;;;;;;;36.45;25.90;;;1.30;99.90;;;;;;5015631;28;20221;-68
2022/01/14 07:35:04;;;;;;;34.50;23.33;;;1.30;99.90;;;;;;5015906;28;20209;-68
2022/01/14 07:37:32;;;;;;;32.50;22.85;;;1.30;99.90;;;;;;5015472;28;20212;-68
2022/01/14 07:39:59;;;;;;;38.65;24.27;;;1.10;99.90;;;;;;5015119;28;20211;-68
2022/01/14 07:42:26;;;;;;;37.78;23.50;;;1.10;99.90;;;;;;5015012;28;20319;-69
2022/01/14 07:44:53;;;;;;;36.05;23.73;;;1.00;99.90;;;;;;5015281;28;20634;-68
2022/01/14 07:47:20;;;;;;;37.53;25.23;;;1.00;99.90;;;;;;5015179;28;20211;-67
2022/01/14 07:49:47;;;;;;;34.72;24.48;;;1.00;99.90;;;;;;5014637;28;20296;-68
2022/01/14 07:52:14;;;;;;;34.97;24.40;;;1.00;99.90;;;;;;5014861;28;20229;-68
2022/01/14 07:54:43;;;;;;;33.70;23.70;;;1.10;99.90;;;;;;5014972;28;20211;-68
2022/01/14 07:57:09;;;;;;;39.67;25.15;;;1.20;99.90;;;;;;5014758;28;20659;-68
2022/01/14 07:59:37;;;;;;;35.33;25.00;;;1.20;99.90;;;;;;5014977;28;20201;-68
2022/01/14 08:02:05;;;;;;;33.42;22.77;;;1.20;99.90;;;;;;5014818;28;20229;-68
2022/01/14 08:04:35;;;;;;;40.42;23.77;;;1.30;99.90;;;;;;5014892;28;20211;-68
2022/01/14 08:07:08;;;;;;;33.63;24.63;;;1.30;99.90;;;;;;5014717;28;20209;-68
2022/01/14 08:09:35;;;;;;;34.00;23.70;;;1.40;99.90;;;;;;5014865;28;20211;-68
2022/01/14 08:12:05;;;;;;;33.83;21.40;;;1.40;99.90;;;;;;5014473;28;20595;-68
2022/01/14 08:14:31;;;;;;;34.45;21.75;;;1.50;99.90;;;;;;5014875;28;20205;-68
2022/01/14 08:16:58;;;;;;;32.72;21.50;;;1.50;99.90;;;;;;5014455;28;20243;-68
2022/01/14 08:19:25;;;;;;;34.13;22.27;;;1.60;99.90;;;;;;5014694;28;20296;-68
2022/01/14 08:21:52;;;;;;;36.88;24.83;;;1.50;99.90;;;;;;5014901;28;20231;-68
2022/01/14 08:24:19;;;;;;;39.90;26.25;;;1.20;99.90;;;;;;5014376;28;20295;-68
2022/01/14 08:26:45;;;;;;;39.08;28.13;;;0.90;99.90;;;;;;5014321;28;20295;-68
2022/01/14 08:29:14;;;;;;;41.15;27.58;;;0.80;99.90;;;;;;5013846;28;20236;-68
2022/01/14 08:31:40;;;;;;;41.83;28.85;;;0.70;99.90;;;;;;5014146;28;20311;-68
2022/01/14 08:34:07;;;;;;;42.70;28.58;;;0.70;99.90;;;;;;5014359;28;20209;-68
2022/01/14 08:36:34;;;;;;;38.40;27.58;;;0.70;99.90;;;;;;5014398;28;20574;-68
2022/01/14 08:39:01;;;;;;;40.47;27.13;;;0.90;99.90;;;;;;5014350;28;20200;-68
2022/01/14 08:41:30;;;;;;;36.28;24.38;;;1.10;99.90;;;;;;5013709;28;20999;-68
2022/01/14 08:43:59;;;;;;;35.50;25.17;;;1.30;99.90;;;;;;5013915;28;20209;-68
2022/01/14 08:46:28;;;;;;;41.83;25.95;;;1.40;99.90;;;;;;5014097;28;20211;-68
2022/01/14 08:48:58;;;;;;;35.67;24.92;;;1.40;99.90;;;;;;5014156;28;20209;-68
2022/01/14 08:51:27;;;;;;;36.70;23.55;;;1.50;99.90;;;;;;5013764;28;20224;-68
2022/01/14 08:53:53;;;;;;;32.50;21.80;;;1.60;99.90;;;;;;5014537;28;20399;-68
2022/01/14 08:56:20;;;;;;;33.92;22.75;;;1.60;99.90;;;;;;5013976;28;20204;-68
2022/01/14 08:58:47;;;;;;;38.05;23.35;;;1.70;99.90;;;;;;5013983;28;20227;-68
2022/01/14 09:01:14;;;;;;;30.98;24.15;;;1.80;99.90;;;;;;5013713;28;20631;-68
2022/01/14 09:03:42;;;;;;;31.63;22.25;;;1.90;99.90;;;;;;5013818;28;20243;-68
2022/01/14 09:06:09;;;;;;;33.30;23.40;;;2.00;99.90;;;;;;5014152;28;20201;-68
2022/01/14 09:08:36;;;;;;;31.92;23.55;;;1.90;99.90;;;;;;5014176;28;20599;-68
2022/01/14 09:11:02;;;;;;;35.83;24.85;;;1.70;99.90;;;;;;5013649;28;20217;-68
2022/01/14 09:13:29;;;;;;;33.83;23.50;;;1.60;99.90;;;;;;5013792;28;20231;-67
2022/01/14 09:15:56;;;;;;;32.58;22.65;;;1.50;99.90;;;;;;5013568;28;20205;-67
2022/01/14 09:18:23;;;;;;;33.20;23.45;;;1.60;99.90;;;;;;5013931;28;20536;-67
2022/01/14 09:20:51;;;;;;;35.83;23.52;;;1.90;99.90;;;;;;5013379;28;20295;-68
2022/01/14 09:23:23;;;;;;;32.03;23.83;;;2.00;99.90;;;;;;5013807;28;20220;-69
2022/01/14 09:25:50;;;;;;;30.80;21.83;;;2.10;99.90;;;;;;5013846;28;20215;-68
2022/01/14 09:28:17;;;;;;;30.13;21.25;;;2.30;99.90;;;;;;5013692;28;20224;-68
2022/01/14 09:30:44;;;;;;;34.15;23.45;;;2.40;99.90;;;;;;5013569;28;20255;-69
2022/01/14 09:33:11;;;;;;;32.50;24.35;;;2.30;99.90;;;;;;5013403;28;20307;-69
2022/01/14 09:35:40;;;;;;;34.88;24.58;;;2.30;99.90;;;;;;5013659;28;20599;-68
2022/01/14 09:38:08;;;;;;;34.50;27.00;;;2.30;99.90;;;;;;5013041;28;20450;-69
2022/01/14 09:40:36;;;;;;;37.85;28.10;;;2.30;99.90;;;;;;5009245;28;20646;-69
2022/01/14 09:43:03;;;;;;;38.88;28.45;;;2.40;99.90;;;;;;4998878;28;20229;-69
2022/01/14 09:45:30;;;;;;;37.80;27.02;;;2.50;99.90;;;;;;5005153;28;20204;-68
2022/01/14 09:47:57;;;;;;;37.38;27.65;;;2.60;99.90;;;;;;5004957;28;20252;-69
2022/01/14 09:50:26;;;;;;;40.72;28.23;;;2.70;99.90;;;;;;5006506;28;20201;-69
2022/01/14 09:52:54;;;;;;;39.90;27.75;;;2.70;99.90;;;;;;5009421;28;20232;-69
2022/01/14 09:55:24;;;;;;;36.53;27.90;;;2.70;99.90;;;;;;5005611;28;20208;-69
2022/01/14 09:57:52;;;;;;;38.58;27.65;;;2.80;99.90;;;;;;5005736;28;20197;-69
2022/01/14 10:00:19;;;;;;;42.08;28.70;;;2.80;99.90;;;;;;4997387;28;20205;-69
2022/01/14 10:02:46;;;;;;;36.53;25.52;;;2.90;99.90;;;;;;4997454;28;20304;-69
2022/01/14 10:05:32;;;;;;;38.08;27.60;;;2.90;99.90;;;;;;4997931;28;20202;-69
2022/01/14 10:08:08;;;;;;;39.15;27.42;;;3.00;99.90;;;;;;4997521;28;20217;-68
2022/01/14 10:10:38;;;;;;;34.17;25.95;;;3.10;99.90;;;;;;5000174;28;20200;-69
2022/01/14 10:13:17;;;;;;;39.20;28.52;;;3.20;99.90;;;;;;5006846;28;20239;-69
2022/01/14 10:15:48;;;;;;;42.70;28.50;;;3.10;99.90;;;;;;5006610;28;20632;-69
2022/01/14 10:18:17;;;;;;;42.75;30.25;;;2.80;99.90;;;;;;5005969;28;20205;-69
2022/01/14 10:20:44;;;;;;;37.28;28.92;;;2.80;99.90;;;;;;5005093;28;20284;-69
2022/01/14 10:23:13;;;;;;;39.78;27.45;;;2.80;99.90;;;;;;5004912;28;20228;-69
2022/01/14 10:25:41;;;;;;;38.88;27.70;;;2.70;99.90;;;;;;5005040;28;20213;-69
2022/01/14 10:28:20;;;;;;;40.00;29.00;;;2.70;99.90;;;;;;5006306;28;20219;-70
2022/01/14 10:30:49;;;;;;;41.75;29.63;;;2.70;99.90;;;;;;5005696;28;20636;-69
2022/01/14 10:33:20;;;;;;;38.35;28.50;;;2.80;99.90;;;;;;5005590;28;20232;-70
2022/01/14 10:35:48;;;;;;;41.40;28.23;;;2.90;99.90;;;;;;5011510;28;20201;-69
2022/01/14 10:38:17;;;;;;;39.88;29.83;;;3.00;99.90;;;;;;5016681;28;20240;-69
2022/01/14 10:40:48;;;;;;;41.50;28.38;;;3.00;99.90;;;;;;5016348;28;20207;-69
2022/01/14 10:43:18;;;;;;;39.00;28.27;;;3.00;99.90;;;;;;5015431;28;20231;-70
2022/01/14 10:45:46;;;;;;;41.15;30.27;;;3.00;99.90;;;;;;5009796;28;20367;-69
2022/01/14 10:48:14;;;;;;;38.75;28.60;;;3.00;99.90;;;;;;5015272;28;20208;-69
2022/01/14 10:50:44;;;;;;;40.33;28.98;;;3.00;99.90;;;;;;5014494;28;20567;-69
2022/01/14 10:53:14;;;;;;;41.72;30.42;;;2.90;99.90;;;;;;5014893;28;20229;-69
2022/01/14 10:55:44;;;;;;;44.97;29.25;;;3.00;99.90;;;;;;5014823;28;20686;-69
2022/01/14 10:58:15;;;;;;;37.95;28.15;;;3.10;99.90;;;;;;5015018;28;20295;-70
2022/01/14 11:00:44;;;;;;;39.78;28.67;;;3.20;99.90;;;;;;5014815;28;20209;-68
2022/01/14 11:03:11;;;;;;;40.08;29.05;;;3.30;99.90;;;;;;5015175;28;20451;-69
2022/01/14 11:05:39;;;;;;;35.38;27.48;;;3.30;99.90;;;;;;5014927;28;20208;-69
2022/01/14 11:08:07;;;;;;;37.80;27.98;;;3.50;99.90;;;;;;5014607;28;20292;-69
2022/01/14 11:10:36;;;;;;;38.88;27.98;;;3.60;99.90;;;;;;5014807;28;20207;-70
2022/01/14 11:13:07;;;;;;;58.50;39.65;;;3.50;99.90;;;;;;5014706;28;20228;-69
2022/01/14 11:15:36;;;;;;;39.15;28.88;;;3.50;99.90;;;;;;5015049;28;20209;-70
2022/01/14 11:18:06;;;;;;;39.83;29.33;;;3.50;99.90;;;;;;5014665;28;20201;-70
2022/01/14 11:23:14;;;;;;;41.05;29.67;;;3.40;99.90;;;;;;5014383;28;20612;-69
2022/01/14 11:23:22;;;;;;;37.92;28.30;;;3.40;99.90;;;;;;5014493;28;20641;-70
2022/01/14 11:25:56;;;;;;;37.80;28.27;;;3.40;99.90;;;;;;5014867;28;20254;-69
2022/01/14 11:28:28;;;;;;;36.75;28.80;;;3.50;99.90;;;;;;5014467;28;20809;-68
2022/01/14 11:30:57;;;;;;;34.58;26.23;;;3.80;99.90;;;;;;5014058;28;20213;-68
2022/01/14 11:33:40;;;;;;;35.53;27.33;;;4.10;99.90;;;;;;5014339;28;20228;-69
2022/01/14 11:36:07;;;;;;;37.03;27.83;;;4.20;99.90;;;;;;5014472;28;20697;-68
2022/01/14 11:38:44;;;;;;;35.25;28.58;;;4.30;99.90;;;;;;5014123;28;20240;-68
2022/01/14 11:41:15;;;;;;;40.35;27.27;;;4.40;99.90;;;;;;5013795;28;20217;-67
2022/01/14 11:43:51;;;;;;;39.22;30.02;;;4.30;99.90;;;;;;5014165;28;20974;-68
2022/01/14 11:46:47;;;;;;;37.58;28.38;;;4.10;99.90;;;;;;5014372;28;20724;-68
2022/01/14 11:49:34;;;;;;;36.67;27.70;;;4.00;99.90;;;;;;5014048;28;20236;-68
2022/01/14 11:52:04;;;;;;;37.28;27.73;;;3.90;99.90;;;;;;5013609;28;20229;-68
2022/01/14 11:54:49;;;;;;;67.78;41.83;;;4.00;99.90;;;;;;5014426;28;20201;-69
2022/01/14 11:57:40;;;;;;;53.15;33.90;;;4.00;99.90;;;;;;5014009;28;20211;-69
2022/01/14 12:00:37;;;;;;;42.55;27.88;;;4.00;99.90;;;;;;5013808;28;20667;-68
2022/01/14 12:03:28;;;;;;;34.10;25.63;;;4.10;99.90;;;;;;5012964;28;20221;-69
2022/01/14 12:05:58;;;;;;;33.47;25.58;;;4.20;99.90;;;;;;5014039;28;20259;-69
2022/01/14 12:08:27;;;;;;;35.90;24.13;;;4.30;99.90;;;;;;5013643;28;20211;-67
2022/01/14 12:11:00;;;;;;;34.25;25.35;;;4.40;99.90;;;;;;5013641;28;20223;-68
2022/01/14 12:13:37;;;;;;;35.45;26.65;;;4.60;99.90;;;;;;5013838;28;20239;-68
2022/01/14 12:19:26;;;;;;;34.60;25.40;;;4.80;99.90;;;;;;4953191;29;20209;-67
2022/01/14 12:22:09;;;;;;;31.27;25.45;;;4.90;99.90;;;;;;5000660;28;20223;-67
2022/01/14 12:24:54;;;;;;;34.40;26.05;;;4.90;99.90;;;;;;5013922;28;20545;-67
2022/01/14 12:27:33;;;;;;;31.63;24.58;;;5.10;99.90;;;;;;5013466;28;20204;-67
2022/01/14 12:30:10;;;;;;;31.90;24.65;;;5.40;99.90;;;;;;5013848;28;20236;-67
2022/01/14 12:32:41;;;;;;;32.92;25.27;;;5.70;99.90;;;;;;5013768;28;20323;-67
2022/01/14 12:35:16;;;;;;;31.48;25.17;;;5.90;99.90;;;;;;5013525;28;20741;-68
2022/01/14 12:37:46;;;;;;;33.67;24.95;;;5.90;99.90;;;;;;5013133;28;20189;-68
2022/01/14 12:40:15;;;;;;;30.42;24.77;;;6.00;99.90;;;;;;5013274;28;20205;-68
2022/01/14 12:42:47;;;;;;;31.27;24.55;;;6.30;99.90;;;;;;5012878;28;20315;-68
2022/01/14 12:45:38;;;;;;;31.73;24.40;;;6.50;99.90;;;;;;5013294;28;20209;-68
2022/01/14 12:48:31;;;;;;;31.23;23.63;;;6.80;99.90;;;;;;5012953;28;20204;-68
2022/01/14 12:51:07;;;;;;;29.08;24.25;;;7.40;99.90;;;;;;5013053;28;20566;-68
2022/01/14 12:53:34;;;;;;;31.30;24.52;;;7.90;99.90;;;;;;5013037;28;20266;-68
2022/01/14 12:56:02;;;;;;;28.80;25.27;;;8.10;99.90;;;;;;5013295;28;20215;-68
2022/01/14 12:58:30;;;;;;;28.20;24.98;;;8.10;99.90;;;;;;5012819;28;20326;-68
2022/01/14 13:01:09;;;;;;;32.88;26.08;;;7.80;99.90;;;;;;5012846;28;20228;-68
2022/01/14 13:03:36;;;;;;;35.50;25.70;;;7.40;99.90;;;;;;5013185;28;20200;-68
2022/01/14 13:06:04;;;;;;;32.50;25.08;;;7.40;99.90;;;;;;5012691;28;20205;-68
2022/01/14 13:08:31;;;;;;;33.05;25.83;;;7.60;99.90;;;;;;5013113;28;20296;-68
2022/01/14 13:11:07;;;;;;;31.40;25.27;;;8.00;99.90;;;;;;5012556;28;20690;-67